createdAt,value
2023-01-04T00:05:07.371Z,2.57
2023-01-04T00:10:26.788Z,2.8
2023-01-04T00:15:46.470Z,2.72
2023-01-04T00:21:05.990Z,2.75
2023-01-04T00:26:25.797Z,2.63
2023-01-04T00:31:44.958Z,2.68
2023-01-04T00:37:03.924Z,2.91
2023-01-04T00:42:22.884Z,2.72
2023-01-04T00:47:42.381Z,2.49
2023-01-04T00:53:01.586Z,2.59
2023-01-04T00:58:21.155Z,2.3
2023-01-04T01:03:40.127Z,2.33
2023-01-04T01:08:58.005Z,2.47
2023-01-04T01:14:17.029Z,2.91
2023-01-04T01:19:36.839Z,2.61
2023-01-04T01:24:56.444Z,2.93
2023-01-04T01:30:15.668Z,3.25
2023-01-04T01:35:35.011Z,3.46
2023-01-04T01:40:54.759Z,3.46
2023-01-04T01:46:13.884Z,3.62
2023-01-04T01:51:33.281Z,3.79
2023-01-04T01:56:52.638Z,3.97
2023-01-04T02:02:12.007Z,3.69
2023-01-04T02:07:30.656Z,3.14
2023-01-04T02:12:49.682Z,3.17
2023-01-04T02:18:08.992Z,3.56
2023-01-04T02:23:28.357Z,3.86
2023-01-04T02:28:47.823Z,3.96
2023-01-04T02:34:07.581Z,4.01
2023-01-04T02:39:26.739Z,4.06
2023-01-04T02:44:45.402Z,4.06
2023-01-04T02:50:05.612Z,4.03
2023-01-04T02:55:23.860Z,4.01
2023-01-04T03:00:42.720Z,4.01
2023-01-04T03:06:02.287Z,4.03
2023-01-04T03:11:21.568Z,3.93
2023-01-04T03:16:40.533Z,3.89
2023-01-04T03:21:59.538Z,3.89
2023-01-04T03:27:18.492Z,3.97
2023-01-04T03:32:38.252Z,4.01
2023-01-04T03:37:57.953Z,4.01
2023-01-04T03:43:17.601Z,3.99
2023-01-04T03:48:36.659Z,4.01
2023-01-04T03:53:56.202Z,4.07
2023-01-04T03:59:15.359Z,4
2023-01-04T04:04:34.604Z,3.97
2023-01-04T04:09:54.357Z,3.97
2023-01-04T04:15:13.880Z,4
2023-01-04T04:20:33.211Z,4.07
2023-01-04T04:25:52.435Z,4.21
2023-01-04T04:31:11.993Z,4.31
2023-01-04T04:36:30.990Z,4.44
2023-01-04T04:41:50.755Z,4.52
2023-01-04T04:47:10.106Z,4.55
2023-01-04T04:52:29.699Z,4.59
2023-01-04T04:57:48.604Z,4.65
2023-01-04T05:03:07.809Z,4.64
2023-01-04T05:08:28.126Z,4.67
2023-01-04T05:13:47.097Z,4.69
2023-01-04T05:19:05.907Z,4.71
2023-01-04T05:24:25.152Z,4.8
2023-01-04T05:29:44.333Z,4.89
2023-01-04T05:35:04.132Z,4.9
2023-01-04T05:40:23.021Z,4.94
2023-01-04T05:45:42.442Z,5
2023-01-04T05:51:01.621Z,5.1
2023-01-04T05:56:20.162Z,5.22
2023-01-04T06:01:38.920Z,5.24
2023-01-04T06:06:57.679Z,5.3
2023-01-04T06:12:16.591Z,5.31
2023-01-04T06:18:01.228Z,5.34
2023-01-04T06:23:20.476Z,5.36
2023-01-04T06:28:41.104Z,5.4
2023-01-04T06:33:58.812Z,5.38
2023-01-04T06:39:17.721Z,5.29
2023-01-04T06:44:37.263Z,5.33
2023-01-04T06:49:56.526Z,5.37
2023-01-04T06:55:15.786Z,5.41
2023-01-04T07:00:34.849Z,5.48
2023-01-04T07:05:53.668Z,5.54
2023-01-04T07:11:12.428Z,5.55
2023-01-04T07:16:31.978Z,5.51
2023-01-04T07:21:50.751Z,5.61
2023-01-04T07:27:09.666Z,5.67
2023-01-04T07:32:29.173Z,5.67
2023-01-04T07:37:52.257Z,5.62
2023-01-04T07:43:07.866Z,5.64
2023-01-04T07:48:27.011Z,5.61
2023-01-04T07:53:45.774Z,5.61
2023-01-04T07:59:05.390Z,5.75
2023-01-04T08:04:26.181Z,6.05
2023-01-04T08:09:43.722Z,6.26
2023-01-04T08:15:02.785Z,6.49
2023-01-04T08:20:22.421Z,6.61
2023-01-04T08:25:41.806Z,6.8
2023-01-04T08:31:00.703Z,6.92
2023-01-04T08:36:26.202Z,7.01
2023-01-04T08:41:57.075Z,7.05
2023-01-04T08:46:58.333Z,7.12
2023-01-04T08:52:16.460Z,7.15
2023-01-04T08:57:36.183Z,7.19
2023-01-04T09:02:55.653Z,7.26
2023-01-04T09:08:15.213Z,7.29
2023-01-04T09:13:34.441Z,7.33
2023-01-04T09:18:53.200Z,7.36
2023-01-04T09:24:12.664Z,7.33
2023-01-04T09:29:32.400Z,7.36
2023-01-04T09:34:51.982Z,7.43
2023-01-04T09:40:10.793Z,7.45
2023-01-04T09:45:29.690Z,7.53
2023-01-04T09:50:48.659Z,7.59
2023-01-04T09:56:08.421Z,7.55
2023-01-04T10:01:28.037Z,7.58
2023-01-04T10:06:46.764Z,7.65
2023-01-04T10:12:06.029Z,7.73
2023-01-04T10:17:44.905Z,7.8
2023-01-04T10:22:44.691Z,7.89
2023-01-04T10:28:04.050Z,7.94
2023-01-04T10:33:23.192Z,8
2023-01-04T10:38:42.537Z,8.08
2023-01-04T10:44:10.329Z,8.07
2023-01-04T10:49:21.144Z,8.14
2023-01-04T10:54:40.444Z,8.2
2023-01-04T10:59:59.775Z,8.29
2023-01-04T11:05:18.667Z,8.41
2023-01-04T11:10:37.949Z,8.49
2023-01-04T11:15:56.803Z,8.59
2023-01-04T11:21:16.260Z,8.64
2023-01-04T11:26:35.002Z,8.63
2023-01-04T11:31:54.166Z,8.53
2023-01-04T11:37:13.367Z,8.42
2023-01-04T11:42:32.453Z,8.28
2023-01-04T11:47:51.403Z,8.17
2023-01-04T11:53:10.473Z,8.1
2023-01-04T11:58:29.271Z,7.97
2023-01-04T12:03:48.798Z,7.87
2023-01-04T12:09:08.149Z,7.86
2023-01-04T12:14:27.217Z,7.74
2023-01-04T12:19:46.556Z,7.6
2023-01-04T12:25:05.638Z,7.52
2023-01-04T12:30:25.718Z,7.45
2023-01-04T12:35:45.231Z,7.5
2023-01-04T12:41:04.527Z,7.55
2023-01-04T12:46:22.645Z,7.6
2023-01-04T12:51:51.818Z,7.69
2023-01-04T12:57:00.226Z,7.74
2023-01-04T13:02:19.466Z,7.79
2023-01-04T13:07:38.228Z,7.89
2023-01-04T13:12:57.339Z,7.98
2023-01-04T13:18:16.501Z,8.12
2023-01-04T13:23:35.348Z,8.25
2023-01-04T13:28:58.140Z,8.37
2023-01-04T13:34:14.227Z,8.51
2023-01-04T13:39:33.950Z,8.58
2023-01-04T13:45:18.351Z,8.68
2023-01-04T13:50:12.907Z,8.72
2023-01-04T13:55:32.487Z,8.76
2023-01-04T14:00:51.889Z,8.8
2023-01-04T14:06:10.898Z,8.8
2023-01-04T14:11:30.780Z,8.8
2023-01-04T14:16:49.891Z,8.84
2023-01-04T14:22:08.938Z,8.85
2023-01-04T14:27:28.393Z,8.72
2023-01-04T14:32:47.635Z,8.49
2023-01-04T14:38:07.323Z,8.42
2023-01-04T14:43:26.651Z,8.34
2023-01-04T14:48:45.594Z,8.24
2023-01-04T14:54:05.091Z,8.31
2023-01-04T14:59:24.591Z,8.42
2023-01-04T15:04:43.317Z,8.41
2023-01-04T15:10:03.013Z,8.32
2023-01-04T15:15:22.262Z,8.32
2023-01-04T15:20:41.572Z,8.17
2023-01-04T15:26:00.462Z,8.04
2023-01-04T15:31:22.457Z,8.02
2023-01-04T15:36:38.982Z,8.07
2023-01-04T15:41:57.769Z,8.05
2023-01-04T15:47:17.235Z,8.07
2023-01-04T15:53:51.404Z,8.18
2023-01-04T15:57:56.958Z,8.2
2023-01-04T16:03:15.817Z,8.14
2023-01-04T16:08:34.045Z,8.08
2023-01-04T16:13:53.647Z,8.14
2023-01-04T16:19:12.797Z,8.17
2023-01-04T16:29:51.733Z,8.05
2023-01-04T16:35:10.636Z,8.08
2023-01-04T16:40:29.979Z,8.1
2023-01-04T16:45:48.794Z,8.12
2023-01-04T16:51:07.878Z,8.14
2023-01-04T16:56:27.200Z,8.24
2023-01-04T17:01:51.323Z,8.28
2023-01-04T17:07:05.458Z,8.25
2023-01-04T17:12:47.919Z,8.29
2023-01-04T17:17:44.095Z,8.29
2023-01-04T17:23:02.946Z,8.32
2023-01-04T17:28:24.973Z,8.41
2023-01-04T17:33:41.269Z,8.38
2023-01-04T17:39:00.566Z,8.34
2023-01-04T17:44:20.178Z,8.38
2023-01-04T17:49:39.184Z,8.34
2023-01-04T17:54:57.363Z,8.41
2023-01-04T18:00:16.779Z,8.38
2023-01-04T18:05:39.556Z,8.35
2023-01-04T18:11:07.079Z,8.39
2023-01-04T18:16:24.653Z,8.51
2023-01-04T18:21:34.180Z,8.53
2023-01-04T18:27:20.225Z,8.68
2023-01-04T18:32:12.592Z,8.68
2023-01-04T18:37:31.800Z,8.8
2023-01-04T18:42:51.501Z,9
2023-01-04T18:48:10.754Z,9.1
2023-01-04T18:53:30.168Z,9.18
2023-01-04T18:58:49.769Z,9.26
2023-01-04T19:04:09.038Z,9.32
2023-01-04T19:09:28.368Z,9.2
2023-01-04T19:14:47.656Z,9.16
2023-01-04T19:20:06.826Z,9.24
2023-01-04T19:25:28.580Z,9.32
2023-01-04T19:30:45.344Z,9.55
2023-01-04T19:36:03.519Z,9.62
2023-01-04T19:41:25.253Z,9.54
2023-01-04T19:46:41.633Z,9.6
2023-01-04T19:52:00.777Z,9.68
2023-01-04T19:57:20.462Z,9.77
2023-01-04T20:02:39.873Z,9.78
2023-01-04T20:07:59.142Z,9.75
2023-01-04T20:13:18.624Z,9.75
2023-01-04T20:18:38.100Z,9.74
2023-01-04T20:23:56.192Z,9.75
2023-01-04T20:29:15.598Z,9.83
2023-01-04T20:34:35.773Z,9.89
2023-01-04T20:41:09.981Z,9.81
2023-01-04T20:45:15.407Z,9.89
2023-01-04T20:50:33.075Z,9.92
2023-01-04T20:55:52.581Z,9.79
2023-01-04T21:01:11.647Z,9.99
2023-01-04T21:06:30.352Z,10.09
2023-01-04T21:11:50.097Z,10.06
2023-01-04T21:17:09.087Z,9.89
2023-01-04T21:22:28.344Z,9.78
2023-01-04T21:27:47.075Z,9.57
2023-01-04T21:33:06.678Z,9.52
2023-01-04T21:38:26.377Z,9.58
2023-01-04T21:43:46.848Z,9.62
2023-01-04T21:49:06.611Z,9.75
2023-01-04T21:54:25.816Z,9.92
2023-01-04T21:59:43.912Z,10.1
2023-01-04T22:05:03.114Z,10.26
2023-01-04T22:10:22.756Z,10.32
2023-01-04T22:15:42.258Z,10.4
2023-01-04T22:21:01.231Z,10.5
2023-01-04T22:26:20.707Z,10.5
2023-01-04T22:31:39.769Z,10.5
2023-01-04T22:36:59.153Z,10.54
2023-01-04T22:42:18.065Z,10.53
2023-01-04T22:47:37.313Z,10.49
2023-01-04T22:52:57.216Z,10.3
2023-01-04T22:58:16.005Z,10.09
2023-01-04T23:03:36.041Z,9.99
2023-01-04T23:08:54.629Z,9.89
2023-01-04T23:14:14.425Z,9.77
2023-01-04T23:19:33.909Z,9.82
2023-01-04T23:24:53.485Z,9.92
2023-01-04T23:30:12.605Z,10
2023-01-04T23:35:31.658Z,9.97
2023-01-04T23:40:51.400Z,10.05
2023-01-04T23:46:10.973Z,10.06
2023-01-04T23:51:29.112Z,10.28
2023-01-04T23:56:48.293Z,10.37
2023-01-04T23:57:13.329Z,10.54
